Time;durP1;ratioP1;P1;durP2;ratioP2;P2;SDS_P1;SDS_P2;PMS_P1;PMS_P2;Temp;Humidity;BMP_temperature;BMP_pressure;BME280_temperature;BME280_humidity;BME280_pressure;Samples;Min_cycle;Max_cycle;Signal;HPM_P1;HPM_P2
2023/08/09 00:00:58;;;;;;;1.60;0.90;;;15.40;99.90;;;;;;5019328;28;20406;-67
2023/08/09 00:03:24;;;;;;;5.25;0.98;;;15.50;99.90;;;;;;5013167;28;20133;-67
2023/08/09 00:05:50;;;;;;;0.95;0.80;;;15.50;99.90;;;;;;5002543;28;20030;-67
2023/08/09 00:08:15;;;;;;;1.73;0.80;;;15.60;99.90;;;;;;5015827;28;20402;-67
2023/08/09 00:10:41;;;;;;;1.27;0.85;;;15.60;99.90;;;;;;5008652;28;20825;-67
2023/08/09 00:13:07;;;;;;;2.67;1.00;;;15.60;99.90;;;;;;5009613;28;20101;-67
2023/08/09 00:15:33;;;;;;;2.53;0.90;;;15.60;99.90;;;;;;5013860;28;20080;-67
2023/08/09 00:17:59;;;;;;;1.88;0.70;;;15.60;99.90;;;;;;5018243;28;20041;-67
2023/08/09 00:20:25;;;;;;;0.75;0.73;;;15.60;99.90;;;;;;5016095;28;20045;-67
2023/08/09 00:22:51;;;;;;;2.80;1.10;;;15.60;99.90;;;;;;5014099;28;20053;-67
2023/08/09 00:25:18;;;;;;;1.48;0.85;;;15.70;99.90;;;;;;5011989;28;20712;-67
2023/08/09 00:27:43;;;;;;;0.80;0.60;;;15.70;99.90;;;;;;5011896;28;20041;-67
2023/08/09 00:30:10;;;;;;;2.28;0.98;;;15.70;99.90;;;;;;4987075;28;20029;-67
2023/08/09 00:32:37;;;;;;;2.67;0.88;;;15.70;99.90;;;;;;4993665;28;20168;-67
2023/08/09 00:35:04;;;;;;;1.00;0.70;;;15.70;99.90;;;;;;5016257;28;20034;-67
2023/08/09 00:37:30;;;;;;;1.95;0.65;;;15.60;99.90;;;;;;5014592;28;20034;-67
2023/08/09 00:39:56;;;;;;;1.25;0.70;;;15.60;99.90;;;;;;5010395;28;20099;-67
2023/08/09 00:42:23;;;;;;;1.05;0.75;;;15.60;99.90;;;;;;5015431;28;20486;-67
2023/08/09 00:44:51;;;;;;;1.67;0.82;;;15.60;99.90;;;;;;4996803;28;20041;-67
2023/08/09 00:47:19;;;;;;;2.47;0.85;;;15.60;99.90;;;;;;4999268;28;20550;-67
2023/08/09 00:49:45;;;;;;;2.70;0.90;;;15.60;99.90;;;;;;4999696;28;20159;-67
2023/08/09 00:52:11;;;;;;;2.63;1.00;;;15.60;99.90;;;;;;5004215;28;20044;-67
2023/08/09 00:54:40;;;;;;;1.05;0.80;;;15.70;99.90;;;;;;5005697;28;20034;-67
2023/08/09 00:57:07;;;;;;;1.45;0.80;;;15.70;99.90;;;;;;4995624;28;20040;-67
2023/08/09 00:59:33;;;;;;;0.70;0.70;;;15.70;99.90;;;;;;4999643;28;20045;-67
2023/08/09 01:02:00;;;;;;;3.72;0.90;;;15.70;99.90;;;;;;4997422;28;20026;-67
2023/08/09 01:04:26;;;;;;;2.03;1.00;;;15.70;99.90;;;;;;5012901;28;20038;-67
2023/08/09 01:07:26;;;;;;;1.20;0.95;;;15.70;99.90;;;;;;5012415;28;20038;-67
2023/08/09 01:10:15;;;;;;;3.08;1.15;;;15.70;99.90;;;;;;5011320;28;20026;-67
2023/08/09 01:12:56;;;;;;;2.60;0.93;;;15.70;99.90;;;;;;5019997;28;20053;-67
2023/08/09 01:15:23;;;;;;;1.90;1.10;;;15.70;99.90;;;;;;5016239;28;20036;-67
2023/08/09 01:17:52;;;;;;;1.70;0.90;;;15.80;99.90;;;;;;5003380;28;20404;-67
2023/08/09 01:20:20;;;;;;;1.65;0.95;;;15.70;99.90;;;;;;4996448;28;20038;-67
2023/08/09 01:22:58;;;;;;;3.60;1.00;;;15.70;99.90;;;;;;4991601;28;20040;-67
2023/08/09 01:25:25;;;;;;;3.63;1.05;;;15.80;99.90;;;;;;4996029;28;20037;-67
2023/08/09 01:27:52;;;;;;;2.92;0.90;;;15.80;99.90;;;;;;5009604;28;20229;-67
2023/08/09 01:30:18;;;;;;;2.90;1.10;;;15.80;99.90;;;;;;4990379;28;20510;-67
2023/08/09 01:32:44;;;;;;;1.92;0.93;;;15.90;99.90;;;;;;5016861;28;20118;-67
2023/08/09 01:35:10;;;;;;;1.23;0.80;;;15.90;99.90;;;;;;4980062;28;20113;-67
2023/08/09 01:37:44;;;;;;;1.40;0.80;;;15.90;99.90;;;;;;5013010;28;20041;-67
2023/08/09 01:40:11;;;;;;;2.20;1.00;;;15.90;99.90;;;;;;5011257;28;20650;-67
2023/08/09 01:42:39;;;;;;;1.42;0.98;;;16.00;99.90;;;;;;5006645;28;20062;-67
2023/08/09 01:45:08;;;;;;;1.65;1.10;;;16.00;99.90;;;;;;4996260;28;20030;-67
2023/08/09 01:47:38;;;;;;;1.30;1.10;;;16.00;99.90;;;;;;5013328;28;20403;-67
2023/08/09 01:50:05;;;;;;;2.28;1.17;;;16.00;99.90;;;;;;4988001;28;20132;-67
2023/08/09 01:52:32;;;;;;;1.73;1.00;;;16.00;99.90;;;;;;4993732;28;20032;-67
2023/08/09 01:54:58;;;;;;;3.90;1.00;;;16.00;99.90;;;;;;5002096;28;20124;-67
2023/08/09 01:57:24;;;;;;;3.00;1.13;;;16.00;99.90;;;;;;5008803;28;20042;-67
2023/08/09 01:59:50;;;;;;;3.65;0.95;;;16.00;99.90;;;;;;4989979;28;20037;-67
2023/08/09 02:02:16;;;;;;;2.45;1.10;;;16.00;99.90;;;;;;5014086;28;20033;-67
2023/08/09 02:04:43;;;;;;;1.50;0.90;;;16.10;99.90;;;;;;4999747;28;20438;-67
2023/08/09 02:07:08;;;;;;;3.35;1.67;;;16.00;99.90;;;;;;4998079;28;20034;-67
2023/08/09 02:09:34;;;;;;;1.15;1.05;;;16.00;99.90;;;;;;5008613;28;20634;-67
2023/08/09 02:12:00;;;;;;;4.95;1.30;;;16.00;99.90;;;;;;4995334;28;20112;-67
2023/08/09 02:14:27;;;;;;;3.17;1.38;;;16.00;99.90;;;;;;5017804;28;20038;-67
2023/08/09 02:16:53;;;;;;;2.63;1.50;;;16.00;99.90;;;;;;4996011;28;20025;-67
2023/08/09 02:19:19;;;;;;;3.10;1.15;;;16.00;99.90;;;;;;5011451;28;20034;-67
2023/08/09 02:21:45;;;;;;;2.13;1.17;;;16.00;99.90;;;;;;5002349;28;20030;-67
2023/08/09 02:24:12;;;;;;;1.33;0.93;;;16.00;99.90;;;;;;5011908;28;20689;-67
2023/08/09 02:26:42;;;;;;;3.08;1.25;;;16.00;99.90;;;;;;4995138;28;20065;-67
2023/08/09 02:29:08;;;;;;;3.47;0.90;;;16.00;99.90;;;;;;5012964;28;20029;-67
2023/08/09 02:31:34;;;;;;;0.95;0.85;;;16.00;99.90;;;;;;5000365;28;20648;-67
2023/08/09 02:34:00;;;;;;;1.50;1.10;;;15.90;99.90;;;;;;4994838;28;20034;-67
2023/08/09 02:36:26;;;;;;;1.10;0.98;;;16.00;99.90;;;;;;4974400;28;20072;-67
2023/08/09 02:38:52;;;;;;;2.42;1.25;;;16.00;99.90;;;;;;4988912;28;20505;-67
2023/08/09 02:41:19;;;;;;;2.03;1.13;;;16.00;99.90;;;;;;5016140;28;20409;-67
2023/08/09 02:43:45;;;;;;;1.58;0.98;;;16.00;99.90;;;;;;5019497;28;20500;-67
2023/08/09 02:46:12;;;;;;;2.35;1.27;;;15.90;99.90;;;;;;4996744;28;20037;-67
2023/08/09 02:48:39;;;;;;;1.10;1.00;;;15.90;99.90;;;;;;5014903;28;20025;-67
2023/08/09 02:51:05;;;;;;;1.70;1.10;;;15.90;99.90;;;;;;4992873;28;20042;-67
2023/08/09 02:53:56;;;;;;;1.90;1.30;;;15.80;99.90;;;;;;4993706;28;20087;-67
2023/08/09 02:56:21;;;;;;;1.08;0.98;;;15.80;99.90;;;;;;4999439;28;20065;-67
2023/08/09 02:58:47;;;;;;;1.55;1.15;;;15.80;99.90;;;;;;5007889;28;20147;-67
2023/08/09 03:01:13;;;;;;;2.80;1.13;;;15.70;99.90;;;;;;4998266;28;20041;-67
2023/08/09 03:03:39;;;;;;;2.42;0.93;;;15.70;99.90;;;;;;4992033;28;20045;-67
2023/08/09 03:06:07;;;;;;;4.03;1.27;;;15.70;99.90;;;;;;4987219;28;20910;-67
2023/08/09 03:08:32;;;;;;;2.25;0.88;;;15.70;99.90;;;;;;5012454;28;20064;-67
2023/08/09 03:10:58;;;;;;;2.78;1.20;;;15.60;99.90;;;;;;4993369;28;20748;-66
2023/08/09 03:13:24;;;;;;;1.52;0.85;;;15.60;99.90;;;;;;4986109;28;20026;-67
2023/08/09 03:15:50;;;;;;;2.88;1.08;;;15.60;99.90;;;;;;4993973;28;20569;-67
2023/08/09 03:18:16;;;;;;;1.73;1.35;;;15.60;99.90;;;;;;4988795;28;20033;-67
2023/08/09 03:20:42;;;;;;;2.15;1.13;;;15.60;99.90;;;;;;4992378;28;20037;-67
2023/08/09 03:23:09;;;;;;;1.63;1.10;;;15.60;99.90;;;;;;4994445;28;20041;-67
2023/08/09 03:25:36;;;;;;;2.70;1.17;;;15.50;99.90;;;;;;5007152;28;20038;-67
2023/08/09 03:28:03;;;;;;;1.35;1.02;;;15.50;99.90;;;;;;4987110;28;20030;-67
2023/08/09 03:30:30;;;;;;;1.75;1.10;;;15.50;99.90;;;;;;4987509;28;20030;-66
2023/08/09 03:32:56;;;;;;;2.42;1.10;;;15.50;99.90;;;;;;5011359;28;20037;-67
2023/08/09 03:35:22;;;;;;;1.65;1.02;;;15.40;99.90;;;;;;5004899;28;20107;-67
2023/08/09 03:37:49;;;;;;;3.70;1.10;;;15.40;99.90;;;;;;4999261;28;20505;-67
2023/08/09 03:40:16;;;;;;;2.45;1.10;;;15.40;99.90;;;;;;4998006;28;20049;-67
2023/08/09 03:42:43;;;;;;;2.05;1.02;;;15.40;99.90;;;;;;4996755;28;20045;-67
2023/08/09 03:45:10;;;;;;;3.22;1.25;;;15.40;99.90;;;;;;4998732;28;20029;-67
2023/08/09 03:47:36;;;;;;;1.75;1.20;;;15.40;99.90;;;;;;4999066;28;20037;-67
2023/08/09 03:50:05;;;;;;;1.48;1.05;;;15.40;99.90;;;;;;5000512;28;20025;-67
2023/08/09 03:52:33;;;;;;;2.00;0.95;;;15.30;99.90;;;;;;5021436;28;20053;-67
2023/08/09 03:55:00;;;;;;;1.02;1.00;;;15.40;99.90;;;;;;4998589;28;20037;-67
2023/08/09 03:57:27;;;;;;;1.65;0.90;;;15.30;99.90;;;;;;5000795;28;20030;-67
2023/08/09 03:59:54;;;;;;;3.17;1.15;;;15.30;99.90;;;;;;5002383;28;20034;-67
2023/08/09 04:02:24;;;;;;;1.38;1.08;;;15.30;99.90;;;;;;5004299;28;20123;-67
2023/08/09 04:04:50;;;;;;;4.50;1.20;;;15.20;99.90;;;;;;4998043;28;20031;-67
2023/08/09 04:07:16;;;;;;;1.98;1.27;;;15.20;99.90;;;;;;5000865;28;20034;-67
2023/08/09 04:09:42;;;;;;;1.65;1.10;;;15.20;99.90;;;;;;5004087;28;20054;-67
2023/08/09 04:12:08;;;;;;;1.20;1.10;;;15.20;99.90;;;;;;5018495;28;20021;-67
2023/08/09 04:14:34;;;;;;;2.15;1.02;;;15.20;99.90;;;;;;5000860;28;20414;-67
2023/08/09 04:17:00;;;;;;;1.25;1.00;;;15.20;99.90;;;;;;5002757;28;20036;-67
2023/08/09 04:19:26;;;;;;;1.80;1.13;;;15.10;99.90;;;;;;5001854;28;20034;-67
2023/08/09 04:21:53;;;;;;;2.30;1.10;;;15.10;99.90;;;;;;5018162;28;20497;-67
2023/08/09 04:24:19;;;;;;;1.38;1.13;;;15.00;99.90;;;;;;5016760;28;20038;-67
2023/08/09 04:26:45;;;;;;;2.05;1.17;;;15.00;99.90;;;;;;5022708;28;20029;-66
2023/08/09 04:29:11;;;;;;;1.27;1.05;;;15.00;99.90;;;;;;5020287;28;20402;-67
2023/08/09 04:31:37;;;;;;;3.72;1.10;;;15.00;99.90;;;;;;5019725;28;20045;-67
2023/08/09 04:34:03;;;;;;;1.25;1.15;;;15.00;99.90;;;;;;5004105;28;20146;-67
2023/08/09 04:36:31;;;;;;;2.17;1.23;;;15.00;99.90;;;;;;5015192;28;20033;-67
2023/08/09 04:38:57;;;;;;;1.52;0.98;;;15.00;99.90;;;;;;5009543;28;20077;-67
2023/08/09 04:41:24;;;;;;;2.17;1.15;;;15.10;99.90;;;;;;5009075;28;20037;-67
2023/08/09 04:43:50;;;;;;;2.00;1.08;;;15.10;99.90;;;;;;5019834;28;20421;-67
2023/08/09 04:46:16;;;;;;;1.77;1.02;;;15.10;99.90;;;;;;5012200;28;20445;-67
2023/08/09 04:48:43;;;;;;;2.50;1.30;;;15.10;99.90;;;;;;5009548;28;20045;-67
2023/08/09 04:51:10;;;;;;;2.53;1.25;;;15.10;99.90;;;;;;5008643;28;20044;-67
2023/08/09 04:53:36;;;;;;;2.20;1.10;;;15.00;99.90;;;;;;4998367;28;20034;-67
2023/08/09 04:56:03;;;;;;;1.83;1.00;;;15.00;99.90;;;;;;5009733;28;20720;-67
2023/08/09 04:58:30;;;;;;;2.35;1.10;;;15.00;99.90;;;;;;5013048;28;20033;-67
2023/08/09 05:00:57;;;;;;;1.33;1.00;;;14.90;99.90;;;;;;5017351;28;20038;-67
2023/08/09 05:03:22;;;;;;;1.75;1.15;;;14.90;99.90;;;;;;5021643;28;20029;-67
2023/08/09 05:05:48;;;;;;;2.00;1.02;;;14.90;99.90;;;;;;5011977;28;20418;-67
2023/08/09 05:08:14;;;;;;;2.35;1.30;;;14.80;99.90;;;;;;5011927;28;20759;-67
2023/08/09 05:10:40;;;;;;;1.20;1.10;;;14.80;99.90;;;;;;5014340;28;20041;-67
2023/08/09 05:13:06;;;;;;;1.27;1.00;;;14.80;99.90;;;;;;5016601;28;20040;-67
2023/08/09 05:15:32;;;;;;;0.80;0.80;;;14.80;99.90;;;;;;5015142;28;20030;-67
2023/08/09 05:17:58;;;;;;;1.55;1.40;;;14.80;99.90;;;;;;5018016;28;20044;-67
2023/08/09 05:20:24;;;;;;;2.33;1.38;;;14.80;99.90;;;;;;5014450;28;20057;-67
2023/08/09 05:22:50;;;;;;;1.58;1.48;;;14.80;99.90;;;;;;5012169;28;20057;-67
2023/08/09 05:25:17;;;;;;;3.97;1.45;;;14.80;99.90;;;;;;5012196;28;20417;-67
2023/08/09 05:27:47;;;;;;;3.72;1.80;;;14.90;99.90;;;;;;5011319;28;20040;-67
2023/08/09 05:30:14;;;;;;;6.00;1.77;;;15.00;99.90;;;;;;5006983;28;20068;-67
2023/08/09 05:32:40;;;;;;;3.20;1.65;;;15.10;99.90;;;;;;5005037;28;20044;-67
2023/08/09 05:35:06;;;;;;;1.70;1.60;;;15.30;99.90;;;;;;5013815;28;20029;-67
2023/08/09 05:37:32;;;;;;;4.18;1.80;;;15.60;99.90;;;;;;5013888;28;20053;-67
2023/08/09 05:39:58;;;;;;;1.50;1.23;;;15.80;99.90;;;;;;5014690;28;20417;-67
2023/08/09 05:42:24;;;;;;;1.38;1.27;;;15.90;99.90;;;;;;5007590;28;20073;-66
2023/08/09 05:44:50;;;;;;;3.47;2.15;;;15.90;99.90;;;;;;5014477;28;20029;-67
2023/08/09 05:47:16;;;;;;;2.58;1.30;;;15.90;99.90;;;;;;5012622;28;20063;-67
2023/08/09 05:49:41;;;;;;;2.20;1.58;;;15.90;99.90;;;;;;5006970;28;20041;-67
2023/08/09 05:52:07;;;;;;;3.42;1.77;;;16.00;99.90;;;;;;5009676;28;20038;-67
2023/08/09 05:54:33;;;;;;;2.35;1.33;;;16.00;99.90;;;;;;5017150;28;20044;-67
2023/08/09 05:57:00;;;;;;;3.03;1.67;;;16.00;99.90;;;;;;5019056;28;20037;-67
2023/08/09 05:59:26;;;;;;;3.78;1.33;;;16.10;99.90;;;;;;5006220;28;20037;-67
2023/08/09 06:01:52;;;;;;;1.80;1.33;;;16.20;99.90;;;;;;5012314;28;20048;-67
2023/08/09 06:04:18;;;;;;;3.35;1.55;;;16.20;99.90;;;;;;4991537;28;20019;-67
2023/08/09 06:06:46;;;;;;;3.10;1.30;;;16.20;99.90;;;;;;5001205;28;20414;-67
2023/08/09 06:09:12;;;;;;;3.10;1.30;;;16.30;99.90;;;;;;5007132;28;20037;-67
2023/08/09 06:11:38;;;;;;;3.50;1.30;;;16.30;99.90;;;;;;5017474;28;20561;-67
2023/08/09 06:14:04;;;;;;;2.60;1.30;;;16.30;99.90;;;;;;5020858;28;20034;-66
2023/08/09 06:16:30;;;;;;;1.90;1.08;;;16.30;99.90;;;;;;5007908;28;20045;-67
2023/08/09 06:18:56;;;;;;;1.50;0.93;;;16.30;99.90;;;;;;5012379;28;20478;-67
2023/08/09 06:21:21;;;;;;;2.03;1.00;;;16.30;99.90;;;;;;5008664;28;20037;-67
2023/08/09 06:23:47;;;;;;;5.28;1.10;;;16.30;99.90;;;;;;5012703;28;20580;-67
2023/08/09 06:26:13;;;;;;;2.35;0.85;;;16.40;99.90;;;;;;5006685;28;20087;-67
2023/08/09 06:28:39;;;;;;;2.55;1.30;;;16.40;99.90;;;;;;5014121;28;20034;-67
2023/08/09 06:31:05;;;;;;;4.03;1.23;;;16.40;99.90;;;;;;5016261;28;20037;-67
2023/08/09 06:33:31;;;;;;;1.73;1.00;;;16.40;99.90;;;;;;5014648;28;20029;-67
2023/08/09 06:35:56;;;;;;;3.08;1.10;;;16.50;99.90;;;;;;5012548;28;20815;-67
2023/08/09 06:38:22;;;;;;;3.55;1.10;;;16.60;99.90;;;;;;5009503;28;20109;-67
2023/08/09 06:40:48;;;;;;;2.47;0.98;;;16.60;99.90;;;;;;5006698;28;20041;-67
2023/08/09 06:43:14;;;;;;;6.53;1.17;;;16.70;99.90;;;;;;4993567;28;20065;-67
2023/08/09 06:45:41;;;;;;;4.82;1.30;;;16.80;99.90;;;;;;4988244;28;20034;-67
2023/08/09 06:48:08;;;;;;;4.13;0.90;;;16.90;99.90;;;;;;5023204;28;20041;-67
2023/08/09 06:50:34;;;;;;;3.00;0.88;;;16.90;99.90;;;;;;5019577;28;20145;-67
2023/08/09 06:53:01;;;;;;;4.00;1.02;;;16.90;99.90;;;;;;5013062;28;20049;-67
2023/08/09 06:55:26;;;;;;;7.07;1.00;;;17.00;99.90;;;;;;5008875;28;20042;-67
2023/08/09 06:57:52;;;;;;;2.72;0.90;;;17.00;99.90;;;;;;5013513;28;20030;-67
2023/08/09 07:00:18;;;;;;;4.22;1.00;;;17.10;99.90;;;;;;5014497;28;20128;-67
2023/08/09 07:02:45;;;;;;;4.65;1.05;;;17.20;99.90;;;;;;5006297;28;20056;-67
2023/08/09 07:05:15;;;;;;;3.35;1.23;;;17.20;99.90;;;;;;5015735;28;20063;-67
2023/08/09 07:07:48;;;;;;;4.07;1.05;;;17.40;99.90;;;;;;5020471;28;20044;-67
2023/08/09 07:10:15;;;;;;;4.95;1.10;;;17.40;99.90;;;;;;4984694;28;20573;-67
2023/08/09 07:12:41;;;;;;;2.35;1.10;;;17.50;99.90;;;;;;5013081;28;20045;-67
2023/08/09 07:15:08;;;;;;;3.67;0.98;;;17.50;99.90;;;;;;5016991;28;20057;-67
2023/08/09 07:17:35;;;;;;;2.88;0.98;;;17.60;99.90;;;;;;5001771;28;20389;-67
2023/08/09 07:20:02;;;;;;;2.40;1.08;;;17.70;99.90;;;;;;5006327;28;20042;-67
2023/08/09 07:22:28;;;;;;;1.95;1.20;;;17.80;99.90;;;;;;5011608;28;20041;-67
2023/08/09 07:24:54;;;;;;;4.13;1.10;;;17.90;99.90;;;;;;5018405;28;20586;-67
2023/08/09 07:27:20;;;;;;;5.75;0.85;;;17.90;99.90;;;;;;5005032;28;20030;-67
2023/08/09 07:29:45;;;;;;;6.30;1.20;;;18.00;99.90;;;;;;5018060;28;20132;-68
2023/08/09 07:32:11;;;;;;;2.53;0.80;;;18.10;99.90;;;;;;5013028;28;20063;-67
2023/08/09 07:34:37;;;;;;;4.30;1.20;;;18.10;99.90;;;;;;5012982;28;20113;-67
2023/08/09 07:37:02;;;;;;;6.82;0.90;;;18.10;99.90;;;;;;5005100;28;20026;-67
2023/08/09 07:39:28;;;;;;;4.95;1.23;;;18.10;99.90;;;;;;5003993;28;20137;-67
2023/08/09 07:41:54;;;;;;;3.75;1.20;;;18.10;99.90;;;;;;5014565;28;20513;-67
2023/08/09 07:44:20;;;;;;;4.63;0.80;;;18.10;99.90;;;;;;5010352;28;20065;-67
2023/08/09 07:46:46;;;;;;;2.95;1.00;;;18.20;99.90;;;;;;5007506;28;20138;-67
2023/08/09 07:49:12;;;;;;;3.40;1.30;;;18.20;99.90;;;;;;5015998;28;20036;-67
2023/08/09 07:51:37;;;;;;;2.20;1.00;;;18.20;99.90;;;;;;5019052;28;20638;-67
2023/08/09 07:54:03;;;;;;;4.45;1.13;;;18.30;99.90;;;;;;4990916;28;20046;-67
2023/08/09 07:56:29;;;;;;;7.70;1.33;;;18.40;99.90;;;;;;5003664;28;20042;-67
2023/08/09 07:58:55;;;;;;;4.30;0.88;;;18.40;99.90;;;;;;5011786;28;20153;-67
2023/08/09 08:01:20;;;;;;;2.47;0.77;;;18.60;99.60;;;;;;5012113;28;20069;-67
2023/08/09 08:03:46;;;;;;;5.13;0.98;;;18.60;99.50;;;;;;5011429;28;20122;-67
2023/08/09 08:06:12;;;;;;;4.97;1.10;;;18.60;99.60;;;;;;4982525;28;20109;-67
2023/08/09 08:08:38;;;;;;;5.35;0.77;;;18.60;99.50;;;;;;5011434;28;20037;-67
2023/08/09 08:11:04;;;;;;;4.55;1.00;;;18.70;99.50;;;;;;5014549;28;20042;-67
2023/08/09 08:13:29;;;;;;;4.75;0.98;;;18.70;99.30;;;;;;5010601;28;20022;-67
2023/08/09 08:15:55;;;;;;;3.70;1.02;;;18.80;99.80;;;;;;5009364;28;20030;-67
2023/08/09 08:18:21;;;;;;;4.38;0.88;;;18.90;98.80;;;;;;5014636;28;20357;-67
2023/08/09 08:20:47;;;;;;;3.63;0.70;;;19.00;98.50;;;;;;5014918;28;20044;-67
2023/08/09 08:23:13;;;;;;;2.13;0.70;;;19.20;98.40;;;;;;5016634;28;20528;-67
2023/08/09 08:25:39;;;;;;;1.90;0.77;;;19.30;98.80;;;;;;5015125;28;20056;-67
2023/08/09 08:28:05;;;;;;;2.03;0.85;;;19.40;98.50;;;;;;5013886;28;20079;-68
2023/08/09 08:30:31;;;;;;;3.78;0.73;;;19.40;98.10;;;;;;5008172;28;20081;-68
2023/08/09 08:32:58;;;;;;;4.43;0.63;;;19.50;97.70;;;;;;5014631;28;20463;-68
2023/08/09 08:35:33;;;;;;;1.70;1.20;;;19.50;97.50;;;;;;5022466;28;20125;-67
2023/08/09 08:37:59;;;;;;;4.68;1.13;;;19.50;97.10;;;;;;5003980;28;20102;-67
2023/08/09 08:40:25;;;;;;;7.57;1.33;;;19.60;97.10;;;;;;5016208;28;20033;-67
2023/08/09 08:42:51;;;;;;;6.00;1.00;;;19.60;96.30;;;;;;5007425;28;20084;-67
2023/08/09 08:45:19;;;;;;;4.57;0.93;;;19.60;97.70;;;;;;5015212;28;20042;-67
2023/08/09 08:47:46;;;;;;;2.53;1.00;;;19.60;96.60;;;;;;5016361;28;20034;-67
2023/08/09 08:50:14;;;;;;;3.55;1.10;;;19.60;96.30;;;;;;4997423;28;20116;-67
2023/08/09 08:52:42;;;;;;;3.60;0.82;;;19.70;96.60;;;;;;5017695;28;20092;-67
2023/08/09 08:55:10;;;;;;;3.25;1.05;;;19.90;96.60;;;;;;5015426;28;20033;-67
2023/08/09 08:57:38;;;;;;;4.10;0.70;;;20.00;96.10;;;;;;5011510;28;20560;-67
2023/08/09 09:00:16;;;;;;;2.20;0.80;;;20.10;95.30;;;;;;5009167;28;20037;-67
2023/08/09 09:02:45;;;;;;;3.38;0.57;;;20.10;95.70;;;;;;5010179;28;20059;-67
2023/08/09 09:05:13;;;;;;;1.02;0.73;;;20.30;95.30;;;;;;5009597;28;20047;-67
2023/08/09 09:07:42;;;;;;;5.22;0.93;;;20.40;94.70;;;;;;5011835;28;20117;-68
2023/08/09 09:10:12;;;;;;;2.25;0.90;;;20.40;95.20;;;;;;5021260;28;20127;-67
2023/08/09 09:12:40;;;;;;;6.22;1.20;;;20.60;94.80;;;;;;5012788;28;20032;-67
2023/08/09 09:15:08;;;;;;;1.45;0.80;;;20.70;95.10;;;;;;5018803;28;20038;-67
2023/08/09 09:17:42;;;;;;;2.15;0.82;;;20.70;93.90;;;;;;5007294;28;20045;-68
2023/08/09 09:20:23;;;;;;;3.38;0.65;;;20.60;93.60;;;;;;4999165;28;20030;-67
2023/08/09 09:22:50;;;;;;;3.72;0.90;;;20.50;94.50;;;;;;4991156;28;20117;-67
2023/08/09 09:25:17;;;;;;;3.65;0.90;;;20.40;94.40;;;;;;5000535;28;20072;-67
2023/08/09 09:27:47;;;;;;;5.35;1.35;;;20.40;94.70;;;;;;5000840;28;20029;-66
2023/08/09 09:30:19;;;;;;;3.88;0.90;;;20.40;95.20;;;;;;5001898;28;20056;-69
2023/08/09 09:32:54;;;;;;;4.50;0.93;;;20.50;94.40;;;;;;4985315;28;20040;-69
2023/08/09 09:35:21;;;;;;;4.60;1.17;;;20.50;94.80;;;;;;5014470;28;20441;-69
2023/08/09 09:37:51;;;;;;;4.40;0.85;;;20.60;93.20;;;;;;5009634;28;20049;-69
2023/08/09 09:40:31;;;;;;;2.83;1.08;;;20.60;92.60;;;;;;5019351;28;20037;-69
2023/08/09 09:42:59;;;;;;;3.40;0.90;;;20.70;93.20;;;;;;4995312;28;20108;-69
2023/08/09 09:45:30;;;;;;;2.55;0.80;;;20.80;92.80;;;;;;5014446;28;20033;-69
2023/08/09 09:47:58;;;;;;;5.70;1.13;;;20.90;92.80;;;;;;5014166;28;20030;-67
2023/08/09 09:50:27;;;;;;;9.18;1.15;;;21.30;92.60;;;;;;5007244;28;20137;-68
2023/08/09 09:52:54;;;;;;;3.15;0.70;;;21.70;91.70;;;;;;5013846;28;20048;-69
2023/08/09 09:55:25;;;;;;;4.28;1.00;;;22.00;90.80;;;;;;4990946;28;20074;-69
2023/08/09 09:57:55;;;;;;;3.53;0.93;;;22.10;90.30;;;;;;5008656;28;20402;-70
2023/08/09 10:00:22;;;;;;;2.90;1.25;;;22.10;90.20;;;;;;5006178;28;20466;-69
2023/08/09 10:02:50;;;;;;;2.47;1.00;;;22.00;90.00;;;;;;5010650;28;20087;-69
2023/08/09 10:05:37;;;;;;;4.32;1.10;;;21.80;88.80;;;;;;5017270;28;20038;-69
2023/08/09 10:08:11;;;;;;;5.65;0.98;;;21.70;90.20;;;;;;4980795;28;20033;-69
2023/08/09 10:10:38;;;;;;;3.90;0.80;;;21.60;90.70;;;;;;5007114;28;20037;-69
2023/08/09 10:13:05;;;;;;;3.60;0.90;;;21.60;90.90;;;;;;5013190;28;20437;-68
2023/08/09 10:15:39;;;;;;;1.52;0.50;;;21.60;91.30;;;;;;5002334;28;20030;-69
2023/08/09 10:18:29;;;;;;;3.55;0.80;;;21.50;90.90;;;;;;5009307;28;20056;-69
2023/08/09 10:20:58;;;;;;;3.40;0.60;;;21.50;90.30;;;;;;5012948;28;20038;-66
2023/08/09 10:23:29;;;;;;;1.08;0.60;;;21.60;90.30;;;;;;5010571;28;20049;-70
2023/08/09 10:25:56;;;;;;;1.90;0.90;;;21.60;90.70;;;;;;5013719;28;20061;-69
2023/08/09 10:28:49;;;;;;;1.95;0.70;;;21.60;89.60;;;;;;5013710;28;20033;-69
2023/08/09 10:31:49;;;;;;;3.20;0.80;;;21.60;90.30;;;;;;5005348;28;20041;-68
2023/08/09 10:34:17;;;;;;;2.25;0.57;;;21.40;89.90;;;;;;5006097;28;20030;-69
2023/08/09 10:36:49;;;;;;;2.58;0.93;;;21.20;90.60;;;;;;4992465;28;20029;-69
2023/08/09 10:39:17;;;;;;;4.93;1.20;;;21.10;92.60;;;;;;5007772;28;20056;-69
2023/08/09 10:41:57;;;;;;;3.03;0.93;;;21.00;94.20;;;;;;5017500;28;20053;-69
2023/08/09 10:44:38;;;;;;;3.88;1.30;;;20.90;94.50;;;;;;5002731;28;20033;-69
2023/08/09 10:47:28;;;;;;;3.63;0.80;;;20.80;94.60;;;;;;4986681;28;20075;-68
2023/08/09 10:49:53;;;;;;;6.20;0.95;;;21.00;94.70;;;;;;5007266;28;20034;-68
2023/08/09 10:52:31;;;;;;;2.95;0.95;;;21.10;94.70;;;;;;5008699;28;20041;-68
2023/08/09 10:55:25;;;;;;;2.97;1.15;;;21.20;93.90;;;;;;5007421;28;20144;-68
2023/08/09 10:57:53;;;;;;;4.10;0.90;;;21.30;93.20;;;;;;5015847;28;20029;-68
2023/08/09 11:00:22;;;;;;;3.63;0.80;;;21.30;92.10;;;;;;5017950;28;20040;-69
2023/08/09 11:02:57;;;;;;;2.15;0.95;;;21.20;92.50;;;;;;5015846;28;20034;-69
2023/08/09 11:05:25;;;;;;;3.65;1.08;;;21.20;92.70;;;;;;4990119;28;20041;-69
2023/08/09 11:07:55;;;;;;;5.25;0.85;;;21.10;92.90;;;;;;5012778;28;20750;-69
2023/08/09 11:10:30;;;;;;;4.35;1.30;;;21.20;92.80;;;;;;5006449;28;20121;-69
2023/08/09 11:12:55;;;;;;;2.78;1.00;;;21.30;92.50;;;;;;5011973;28;20037;-69
2023/08/09 11:15:21;;;;;;;3.47;0.88;;;21.40;92.30;;;;;;5010345;28;20044;-69
2023/08/09 11:17:48;;;;;;;2.67;0.70;;;21.40;91.00;;;;;;5014088;28;20030;-70
2023/08/09 11:20:15;;;;;;;2.38;0.85;;;21.30;91.40;;;;;;5016751;28;20037;-70
2023/08/09 11:23:00;;;;;;;4.47;0.80;;;21.40;91.20;;;;;;5015545;28;20047;-70
2023/08/09 11:25:29;;;;;;;3.72;0.60;;;21.30;90.40;;;;;;5012340;28;20037;-69
2023/08/09 11:27:57;;;;;;;5.13;0.95;;;21.30;88.30;;;;;;5008483;28;20042;-70
2023/08/09 11:30:23;;;;;;;3.22;1.00;;;21.30;89.40;;;;;;5018077;28;20030;-70
2023/08/09 11:33:04;;;;;;;3.30;1.17;;;21.30;91.00;;;;;;4994855;28;20038;-70
2023/08/09 11:35:31;;;;;;;1.42;0.63;;;21.20;91.60;;;;;;5011277;28;20029;-69
2023/08/09 11:37:58;;;;;;;2.33;0.70;;;21.30;91.50;;;;;;5015015;28;20112;-69
2023/08/09 11:40:24;;;;;;;5.13;0.73;;;21.30;91.30;;;;;;5015681;28;20045;-69
2023/08/09 11:42:57;;;;;;;3.80;0.73;;;21.10;90.70;;;;;;5009992;28;20850;-69
2023/08/09 11:45:23;;;;;;;4.30;0.80;;;21.00;90.50;;;;;;4995083;28;20045;-69
2023/08/09 11:47:51;;;;;;;2.25;0.88;;;21.10;91.70;;;;;;5010658;28;20030;-69
2023/08/09 11:50:24;;;;;;;2.67;0.80;;;21.20;90.80;;;;;;5013383;28;20046;-66
2023/08/09 11:52:54;;;;;;;1.90;0.80;;;21.30;90.30;;;;;;5012848;28;20445;-67
2023/08/09 11:55:24;;;;;;;2.53;0.60;;;21.50;90.00;;;;;;5006329;28;20050;-67
2023/08/09 11:57:50;;;;;;;5.40;1.00;;;21.60;89.30;;;;;;5012144;28;20704;-67
2023/08/09 12:00:17;;;;;;;1.65;0.80;;;21.60;87.70;;;;;;5010169;28;20041;-67
2023/08/09 12:02:44;;;;;;;4.60;0.90;;;21.50;88.10;;;;;;5009905;28;20061;-67
2023/08/09 12:05:14;;;;;;;2.00;0.98;;;21.50;89.30;;;;;;5007567;28;20037;-67
2023/08/09 12:07:40;;;;;;;3.80;0.80;;;21.50;89.30;;;;;;5015292;28;20040;-67
2023/08/09 12:10:10;;;;;;;4.55;0.70;;;21.50;87.40;;;;;;5016635;28;20709;-67
2023/08/09 12:12:38;;;;;;;3.30;0.98;;;21.50;87.90;;;;;;5008149;28;20416;-66
2023/08/09 12:15:05;;;;;;;1.77;0.90;;;21.40;87.90;;;;;;4999248;28;20560;-66
2023/08/09 12:17:32;;;;;;;2.60;0.60;;;21.40;88.70;;;;;;5002878;28;20034;-66
2023/08/09 12:20:04;;;;;;;1.50;0.68;;;21.40;88.60;;;;;;5010199;28;20048;-66
2023/08/09 12:22:30;;;;;;;1.50;0.75;;;21.50;89.60;;;;;;5007675;28;20128;-66
2023/08/09 12:24:57;;;;;;;1.98;0.80;;;21.60;87.60;;;;;;5008669;28;20557;-66
2023/08/09 12:27:23;;;;;;;1.98;0.70;;;21.60;87.20;;;;;;5014422;28;20034;-66
2023/08/09 12:29:50;;;;;;;2.35;0.68;;;21.60;87.60;;;;;;5014032;28;20040;-66
2023/08/09 12:32:16;;;;;;;3.45;0.73;;;21.60;89.10;;;;;;5010227;28;20048;-66
2023/08/09 12:34:43;;;;;;;2.63;0.77;;;21.70;89.20;;;;;;5011202;28;20034;-66
2023/08/09 12:37:09;;;;;;;3.20;0.88;;;21.60;88.10;;;;;;5008750;28;20419;-66
2023/08/09 12:39:35;;;;;;;2.13;0.77;;;21.50;88.80;;;;;;5008392;28;20065;-67
2023/08/09 12:42:01;;;;;;;1.48;0.80;;;21.60;89.30;;;;;;5009574;28;20044;-67
2023/08/09 12:44:27;;;;;;;3.47;1.17;;;21.80;88.60;;;;;;5013912;28;20038;-67
2023/08/09 12:46:53;;;;;;;3.85;1.30;;;21.90;87.00;;;;;;5014675;28;20521;-67
2023/08/09 12:49:20;;;;;;;4.20;1.38;;;22.00;88.20;;;;;;5012000;28;20120;-66
2023/08/09 12:51:46;;;;;;;4.18;1.10;;;22.10;87.70;;;;;;5011323;28;20064;-67